Hurlburt Field
KHRT : now visible

Airfield :











YOU CAN JOIN US ON...

 
LOGIN :

Register | Disclaimer

   EN    FR    IT 

 









Legend :    VFR   Marginal VFR   IFR   Intensive IFR   Very Intensive IFR
Visi :
Ceiling :
>= 8 km
>= 3000ft
5 to 8 km
1000 to 3000 ft
1500m to 5 km
500 to 1000 ft
800 to 1500m
200 to 500 ft
< 800m
< 200 ft
Symbols :   Thunderstorms  Fog  Heavy snow  Heavy precipitations  Wind > 20 kt






- Airport Elevation : 38 ft


KHRT - Hurlburt Field

CURRENT METAR :
  • 231456Z 10007KT 10SM SCT150 13/04 A3028 RMK AO2A SLP256 T01280040 51004 $

EXPIRED METARs :
  • 231356Z 07006KT 10SM FEW200 09/02 A3028 RMK AO2A SLP256 T00880015 $

TAF TAF KHRT
Valid from the 23 at 10:00 until the 24 at 16:00 UTC


231000Z 2310/2416 36005KT 9999 FEW200 QNH3025INS
BECMG 2402/2403 16010KT 9999 FEW030 QNH3010INS
BECMG 2405/2406 18015KT 9999 BKN030 QNH3012INS
BECMG 2410/2411 18020KT 8000 -SHRA BKN020 QNH3005INS TX14/2320Z TN02/2312Z



MET'MAP, your aeronautical weather chart ! - Copyright ORBIFLY December 2007 - Disclaimer

ORBIFLY MET'MAP TEAM :

Programming & Development : Alexandra Zaïnal
Concept & original design : Baudouin d'Aumeries
Assistance for programming : Marc-Olivier Méhu
Technical & hardware support : Manuel Goepfert

Contact : metmap@orbifly.com




SOURCES & CREDITS :

   NOAA       Earth
Advisory